createdAt,value
2022-12-04T00:00:21.459Z,3.05
2022-12-04T00:02:53.933Z,3.11
2022-12-04T00:05:26.322Z,3.15
2022-12-04T00:07:58.808Z,3.17
2022-12-04T00:10:31.880Z,3.20
2022-12-04T00:13:04.289Z,3.25
2022-12-04T00:15:41.354Z,3.28
2022-12-04T00:18:13.766Z,3.26
2022-12-04T00:20:46.273Z,3.24
2022-12-04T00:23:18.790Z,3.22
2022-12-04T00:25:52.616Z,3.21
2022-12-04T00:28:24.998Z,3.24
2022-12-04T00:30:57.451Z,3.21
2022-12-04T00:33:29.774Z,3.19
2022-12-04T00:36:04.947Z,3.17
2022-12-04T00:38:38.362Z,3.14
2022-12-04T00:41:12.254Z,3.12
2022-12-04T00:43:45.474Z,3.09
2022-12-04T00:46:18.208Z,3.07
2022-12-04T00:48:51.277Z,3.04
2022-12-04T00:51:24.784Z,2.95
2022-12-04T00:53:57.134Z,2.92
2022-12-04T00:56:30.223Z,2.91
2022-12-04T00:59:02.844Z,2.90
2022-12-04T01:01:35.215Z,2.93
2022-12-04T01:04:07.612Z,2.90
2022-12-04T01:06:39.978Z,2.93
2022-12-04T01:09:12.336Z,2.94
2022-12-04T01:11:45.336Z,3.01
2022-12-04T01:14:17.885Z,3.01
2022-12-04T01:16:50.261Z,3.01
2022-12-04T01:19:22.655Z,3.04
2022-12-04T01:21:55.051Z,3.05
2022-12-04T01:24:27.446Z,3.06
2022-12-04T01:27:00.540Z,3.13
2022-12-04T01:29:32.939Z,3.11
2022-12-04T01:32:05.795Z,3.11
2022-12-04T01:34:38.163Z,3.12
2022-12-04T01:37:10.570Z,3.12
2022-12-04T01:39:42.940Z,3.10
2022-12-04T01:42:16.146Z,3.09
2022-12-04T01:45:21.524Z,3.13
2022-12-04T01:47:55.713Z,3.15
2022-12-04T01:50:28.808Z,3.13
2022-12-04T01:53:01.579Z,3.15
2022-12-04T01:55:34.142Z,3.17
2022-12-04T01:58:08.660Z,3.07
2022-12-04T02:00:41.193Z,3.13
2022-12-04T02:03:14.571Z,3.13
2022-12-04T02:05:47.162Z,3.17
2022-12-04T02:08:19.733Z,3.14
2022-12-04T02:11:03.295Z,3.03
2022-12-04T02:13:42.103Z,2.95
2022-12-04T02:16:19.749Z,3.04
2022-12-04T02:18:58.779Z,3.01
2022-12-04T02:21:36.045Z,3.07
2022-12-04T02:24:26.259Z,3.14
2022-12-04T02:27:02.973Z,3.17
2022-12-04T02:29:43.962Z,3.13
2022-12-04T02:32:21.849Z,3.21
2022-12-04T02:34:58.840Z,3.24
2022-12-04T02:37:35.479Z,3.23
2022-12-04T02:40:12.010Z,3.23
2022-12-04T02:42:49.671Z,3.24
2022-12-04T02:45:26.770Z,3.26
2022-12-04T02:48:02.066Z,3.20
2022-12-04T02:50:37.415Z,3.17
2022-12-04T02:53:15.465Z,3.18
2022-12-04T02:55:51.966Z,3.23
2022-12-04T02:58:29.806Z,3.22
2022-12-04T03:01:18.727Z,3.09
2022-12-04T03:03:55.890Z,3.01
2022-12-04T03:06:32.168Z,2.90
2022-12-04T03:09:12.395Z,2.87
2022-12-04T03:11:49.506Z,2.70
2022-12-04T03:14:25.785Z,2.79
2022-12-04T03:17:03.735Z,2.86
2022-12-04T03:19:40.230Z,2.84
2022-12-04T03:22:16.162Z,2.92
2022-12-04T03:24:51.114Z,2.83
2022-12-04T03:27:33.448Z,2.71
2022-12-04T03:30:08.642Z,2.76
2022-12-04T03:32:46.186Z,2.87
2022-12-04T03:35:23.421Z,2.87
2022-12-04T03:38:01.188Z,2.84
2022-12-04T03:40:37.872Z,2.84
2022-12-04T03:43:17.073Z,2.85
2022-12-04T03:45:54.123Z,2.89
2022-12-04T03:48:32.853Z,2.92
2022-12-04T03:51:13.338Z,2.90
2022-12-04T03:53:52.373Z,2.94
2022-12-04T03:56:28.965Z,2.94
2022-12-04T03:59:08.860Z,2.96
2022-12-04T04:01:46.029Z,3.04
2022-12-04T04:04:26.647Z,3.04
2022-12-04T04:07:04.620Z,2.77
2022-12-04T04:09:40.924Z,2.89
2022-12-04T04:12:17.981Z,2.89
2022-12-04T04:15:12.922Z,2.91
2022-12-04T04:18:03.023Z,2.89
2022-12-04T04:20:59.976Z,3.00
2022-12-04T04:23:56.590Z,3.06
2022-12-04T04:26:35.489Z,3.03
2022-12-04T04:29:08.490Z,3.06
2022-12-04T04:31:45.092Z,3.05
2022-12-04T04:34:23.408Z,3.06
2022-12-04T04:37:02.048Z,3.07
2022-12-04T04:39:37.885Z,3.06
2022-12-04T04:42:16.365Z,3.04
2022-12-04T04:45:02.386Z,3.04
2022-12-04T04:47:38.923Z,3.04
2022-12-04T04:50:13.627Z,3.10
2022-12-04T04:52:50.537Z,3.08
2022-12-04T04:55:23.726Z,3.14
2022-12-04T04:58:06.659Z,3.11
2022-12-04T05:00:39.781Z,3.11
2022-12-04T05:03:12.116Z,3.00
2022-12-04T05:05:44.550Z,3.01
2022-12-04T05:08:17.926Z,2.99
2022-12-04T05:10:50.609Z,2.95
2022-12-04T05:13:23.066Z,3.00
2022-12-04T05:15:57.183Z,2.91
2022-12-04T05:18:30.524Z,2.89
2022-12-04T05:21:05.172Z,2.83
2022-12-04T05:23:38.229Z,2.74
2022-12-04T05:26:10.637Z,2.75
2022-12-04T05:28:42.941Z,2.62
2022-12-04T05:31:15.431Z,2.55
2022-12-04T05:33:47.764Z,2.51
2022-12-04T05:36:20.101Z,2.52
2022-12-04T05:38:53.109Z,2.52
2022-12-04T05:41:25.537Z,2.54
2022-12-04T05:43:57.826Z,2.57
2022-12-04T05:46:30.229Z,2.55
2022-12-04T05:49:02.555Z,2.54
2022-12-04T05:51:34.899Z,2.58
2022-12-04T05:54:07.903Z,2.51
2022-12-04T05:56:40.237Z,2.47
2022-12-04T05:59:13.090Z,2.44
2022-12-04T06:01:45.875Z,2.46
2022-12-04T06:04:18.386Z,2.34
2022-12-04T06:06:50.789Z,2.34
2022-12-04T06:09:23.836Z,2.34
2022-12-04T06:11:57.499Z,2.34
2022-12-04T06:14:32.617Z,2.25
2022-12-04T06:17:07.458Z,2.26
2022-12-04T06:19:39.890Z,2.34
2022-12-04T06:22:12.304Z,2.32
2022-12-04T06:24:45.429Z,2.36
2022-12-04T06:27:32.990Z,2.34
2022-12-04T06:30:06.653Z,2.22
2022-12-04T06:32:38.993Z,2.29
2022-12-04T06:35:11.322Z,2.28
2022-12-04T06:37:43.641Z,2.28
2022-12-04T06:40:16.882Z,2.32
2022-12-04T06:42:50.109Z,2.30
2022-12-04T06:45:22.571Z,2.41
2022-12-04T06:47:54.882Z,2.40
2022-12-04T06:50:27.234Z,2.46
2022-12-04T06:53:03.593Z,2.48
2022-12-04T06:55:48.516Z,2.51
2022-12-04T06:58:20.996Z,2.62
2022-12-04T07:00:54.508Z,2.73
2022-12-04T07:03:27.038Z,2.86
2022-12-04T07:05:59.508Z,2.87
2022-12-04T07:08:31.988Z,2.92
2022-12-04T07:11:05.261Z,3.04
2022-12-04T07:13:38.041Z,3.06
2022-12-04T07:16:13.793Z,3.22
2022-12-04T07:18:49.690Z,3.22
2022-12-04T07:21:26.099Z,3.21
2022-12-04T07:24:00.701Z,3.31
2022-12-04T07:26:33.909Z,3.42
2022-12-04T07:29:06.571Z,3.47
2022-12-04T07:31:39.161Z,3.46
2022-12-04T07:34:11.820Z,3.46
2022-12-04T07:36:44.267Z,3.40
2022-12-04T07:39:16.685Z,3.35
2022-12-04T07:41:49.834Z,3.42
2022-12-04T07:44:22.308Z,3.51
2022-12-04T07:46:54.747Z,3.50
2022-12-04T07:49:27.514Z,3.43
2022-12-04T07:52:00.011Z,3.45
2022-12-04T07:54:32.507Z,3.56
2022-12-04T07:57:05.639Z,3.49
2022-12-04T07:59:38.661Z,3.58
2022-12-04T08:02:12.214Z,3.46
2022-12-04T08:04:44.832Z,3.43
2022-12-04T08:07:18.286Z,3.53
2022-12-04T08:09:50.757Z,3.56
2022-12-04T08:12:23.902Z,3.58
2022-12-04T08:14:56.350Z,3.68
2022-12-04T08:17:28.851Z,3.74
2022-12-04T08:20:02.217Z,3.89
2022-12-04T08:22:34.753Z,3.89
2022-12-04T08:25:08.073Z,3.85
2022-12-04T08:27:47.511Z,4.02
2022-12-04T08:30:20.190Z,4.08
2022-12-04T08:32:53.485Z,4.12
2022-12-04T08:35:26.182Z,4.12
2022-12-04T08:37:58.609Z,4.08
2022-12-04T08:40:31.046Z,4.14
2022-12-04T08:43:05.049Z,4.23
2022-12-04T08:45:37.636Z,4.22
2022-12-04T08:48:11.337Z,4.35
2022-12-04T08:50:45.173Z,4.42
2022-12-04T08:53:17.764Z,4.43
2022-12-04T08:55:50.920Z,4.49
2022-12-04T08:58:25.781Z,4.48
2022-12-04T09:01:04.490Z,4.42
2022-12-04T09:03:37.649Z,4.59
2022-12-04T09:06:12.893Z,4.63
2022-12-04T09:08:45.593Z,4.70
2022-12-04T09:11:20.837Z,4.73
2022-12-04T09:13:56.203Z,4.75
2022-12-04T09:16:28.956Z,4.75
2022-12-04T09:19:01.503Z,4.89
2022-12-04T09:21:34.933Z,4.92
2022-12-04T09:24:07.614Z,5.05
2022-12-04T09:26:41.132Z,5.07
2022-12-04T09:29:15.196Z,5.12
2022-12-04T09:31:47.823Z,5.06
2022-12-04T09:34:21.875Z,5.18
2022-12-04T09:36:54.504Z,5.29
2022-12-04T09:39:27.683Z,5.42
2022-12-04T09:42:20.021Z,5.57
2022-12-04T09:45:00.167Z,5.67
2022-12-04T09:47:37.067Z,5.84
2022-12-04T09:50:16.603Z,5.95
2022-12-04T09:52:55.936Z,5.93
2022-12-04T09:55:33.925Z,6.03
2022-12-04T09:58:13.615Z,6.26
2022-12-04T10:00:50.604Z,6.35
2022-12-04T10:03:28.956Z,6.50
2022-12-04T10:06:11.491Z,6.63
2022-12-04T10:08:45.822Z,6.54
2022-12-04T10:11:32.255Z,6.66
2022-12-04T10:14:19.390Z,6.67
2022-12-04T10:17:09.851Z,6.87
2022-12-04T10:19:50.503Z,6.92
2022-12-04T10:22:30.752Z,7.17
2022-12-04T10:25:08.394Z,7.16
2022-12-04T10:27:47.353Z,7.18
2022-12-04T10:30:23.415Z,7.18
2022-12-04T10:33:03.324Z,7.11
2022-12-04T10:35:38.537Z,7.25
2022-12-04T10:38:20.524Z,7.22
2022-12-04T10:40:58.108Z,7.25
2022-12-04T10:43:41.653Z,7.26
2022-12-04T10:46:21.300Z,7.32
2022-12-04T10:48:56.316Z,7.34
2022-12-04T10:51:35.672Z,7.31
2022-12-04T10:54:16.387Z,7.27
2022-12-04T10:56:56.456Z,7.37
2022-12-04T10:59:30.104Z,7.40
2022-12-04T11:02:15.864Z,7.39
2022-12-04T11:04:57.411Z,7.26
2022-12-04T11:07:34.432Z,7.34
2022-12-04T11:10:20.738Z,7.34
2022-12-04T11:12:56.074Z,7.29
2022-12-04T11:15:29.320Z,7.38
2022-12-04T11:18:10.417Z,7.44
2022-12-04T11:20:53.008Z,7.49
2022-12-04T11:23:27.923Z,7.63
2022-12-04T11:26:06.216Z,7.57
2022-12-04T11:28:44.846Z,7.51
2022-12-04T11:31:20.819Z,7.61
2022-12-04T11:33:55.761Z,7.63
2022-12-04T11:36:32.333Z,7.49
2022-12-04T11:39:14.912Z,7.41
2022-12-04T11:41:50.047Z,7.48
2022-12-04T11:44:28.112Z,7.35
2022-12-04T11:47:04.518Z,7.38
2022-12-04T11:49:42.221Z,7.39
2022-12-04T11:52:30.152Z,7.33
2022-12-04T11:55:11.838Z,7.22
2022-12-04T11:57:50.110Z,7.27
2022-12-04T12:00:23.383Z,7.35
2022-12-04T12:03:11.334Z,7.47
2022-12-04T12:06:00.745Z,7.39
2022-12-04T12:08:49.396Z,7.51
2022-12-04T12:11:31.581Z,7.63
2022-12-04T12:14:20.211Z,7.61
2022-12-04T12:17:01.758Z,7.37
2022-12-04T12:19:47.792Z,7.16
2022-12-04T12:22:38.018Z,7.41
2022-12-04T12:25:18.730Z,7.30
2022-12-04T12:28:05.585Z,7.18
2022-12-04T12:30:54.226Z,7.00
2022-12-04T12:33:30.771Z,6.86
2022-12-04T12:36:08.285Z,6.64
2022-12-04T12:38:47.454Z,6.58
2022-12-04T12:41:26.054Z,6.46
2022-12-04T12:44:03.839Z,6.31
2022-12-04T12:46:44.024Z,6.30
2022-12-04T12:49:21.042Z,6.18
2022-12-04T12:51:59.458Z,6.16
2022-12-04T12:54:45.255Z,6.07
2022-12-04T12:57:25.482Z,6.04
2022-12-04T13:00:06.080Z,5.97
2022-12-04T13:02:45.847Z,5.76
2022-12-04T13:05:21.563Z,5.65
2022-12-04T13:08:02.026Z,5.62
2022-12-04T13:10:41.121Z,5.80
2022-12-04T13:13:20.499Z,5.75
2022-12-04T13:16:00.175Z,5.87
2022-12-04T13:18:41.410Z,5.84
2022-12-04T13:21:45.843Z,5.81
2022-12-04T13:24:51.108Z,5.63
2022-12-04T13:27:36.548Z,5.42
2022-12-04T13:30:17.185Z,5.41
2022-12-04T13:33:18.155Z,5.41
2022-12-04T13:36:17.368Z,5.34
2022-12-04T13:39:08.568Z,5.27
2022-12-04T13:41:42.392Z,5.51
2022-12-04T13:44:20.700Z,5.67
2022-12-04T13:46:59.218Z,5.68
2022-12-04T13:49:35.299Z,5.77
2022-12-04T13:52:24.108Z,5.69
2022-12-04T13:54:58.187Z,5.66
2022-12-04T13:57:32.192Z,5.70
2022-12-04T14:00:24.781Z,5.60
2022-12-04T14:03:02.951Z,5.53
2022-12-04T14:05:42.117Z,5.53
2022-12-04T14:08:26.073Z,5.43
2022-12-04T14:11:03.399Z,5.29
2022-12-04T14:13:45.392Z,5.28
2022-12-04T14:16:23.426Z,5.35
2022-12-04T14:18:59.422Z,5.21
2022-12-04T14:21:39.288Z,5.20
2022-12-04T14:24:17.201Z,5.17
2022-12-04T14:29:53.073Z,5.33
2022-12-04T14:32:28.977Z,5.21
2022-12-04T14:35:02.624Z,4.86
2022-12-04T14:37:40.488Z,4.91
2022-12-04T14:40:21.294Z,4.89
2022-12-04T14:42:54.500Z,4.99
2022-12-04T14:45:36.432Z,4.79
2022-12-04T14:48:23.156Z,4.66
2022-12-04T14:51:04.687Z,4.66
2022-12-04T14:53:44.414Z,4.75
2022-12-04T14:56:23.933Z,4.71
2022-12-04T14:58:58.484Z,4.76
2022-12-04T15:01:36.126Z,4.67
2022-12-04T15:04:19.031Z,4.74
2022-12-04T15:06:59.716Z,4.66
2022-12-04T15:09:50.559Z,4.70
2022-12-04T15:12:33.299Z,4.69
2022-12-04T15:15:13.769Z,4.61
2022-12-04T15:17:56.805Z,4.66
2022-12-04T15:20:38.687Z,4.79
2022-12-04T15:23:15.057Z,4.71
2022-12-04T15:25:50.870Z,4.63
2022-12-04T15:28:28.674Z,4.63
2022-12-04T15:31:03.474Z,4.64
2022-12-04T15:33:38.726Z,4.70
2022-12-04T15:36:15.730Z,4.61
2022-12-04T15:38:50.255Z,4.57
2022-12-04T15:41:33.075Z,4.58
2022-12-04T15:44:21.760Z,4.43
2022-12-04T15:46:55.638Z,4.51
2022-12-04T15:49:29.135Z,4.58
2022-12-04T15:52:07.783Z,4.59
2022-12-04T15:54:43.950Z,4.38
2022-12-04T15:57:22.935Z,4.44
2022-12-04T16:00:00.377Z,4.49
2022-12-04T16:02:35.829Z,4.42
2022-12-04T16:05:12.649Z,4.47
2022-12-04T16:07:49.692Z,4.57
2022-12-04T16:10:25.102Z,4.41
2022-12-04T16:12:59.933Z,4.47
2022-12-04T16:15:37.138Z,4.27
2022-12-04T16:18:13.680Z,4.26
2022-12-04T16:20:46.130Z,4.34
2022-12-04T16:23:18.480Z,4.36
2022-12-04T16:25:53.641Z,4.35
2022-12-04T16:28:26.211Z,4.37
2022-12-04T16:30:58.637Z,4.41
2022-12-04T16:33:30.993Z,4.28
2022-12-04T16:36:03.612Z,4.20
2022-12-04T16:38:36.158Z,4.20
2022-12-04T16:41:13.865Z,4.23
2022-12-04T16:43:53.176Z,4.07
2022-12-04T16:46:27.590Z,3.92
2022-12-04T16:49:05.837Z,4.05
2022-12-04T16:51:42.416Z,3.98
2022-12-04T16:54:15.164Z,3.99
2022-12-04T16:56:48.183Z,3.99
2022-12-04T16:59:20.540Z,4.06
2022-12-04T17:01:53.287Z,4.14
2022-12-04T17:04:25.748Z,4.14
2022-12-04T17:06:58.563Z,4.02
2022-12-04T17:09:30.929Z,3.93
2022-12-04T17:12:04.273Z,3.85
2022-12-04T17:14:36.674Z,3.70
2022-12-04T17:17:09.021Z,3.53
2022-12-04T17:19:41.402Z,3.50
2022-12-04T17:22:13.905Z,3.47
2022-12-04T17:24:51.560Z,3.29
2022-12-04T17:27:28.701Z,3.04
2022-12-04T17:30:01.126Z,2.98
2022-12-04T17:32:34.593Z,3.00
2022-12-04T17:35:08.821Z,2.96
2022-12-04T17:37:41.148Z,3.04
2022-12-04T17:40:14.320Z,3.15
2022-12-04T17:42:47.362Z,3.25
2022-12-04T17:45:19.781Z,3.33
2022-12-04T17:47:52.169Z,3.48
2022-12-04T17:50:24.504Z,3.55
2022-12-04T17:52:56.913Z,3.55
2022-12-04T17:55:29.262Z,3.54
2022-12-04T17:58:02.300Z,3.45
2022-12-04T18:00:34.692Z,3.19
2022-12-04T18:03:07.190Z,3.18
2022-12-04T18:05:39.608Z,3.14
2022-12-04T18:08:11.999Z,3.13
2022-12-04T18:10:44.308Z,3.08
2022-12-04T18:13:17.311Z,2.98
2022-12-04T18:15:49.678Z,2.99
2022-12-04T18:18:22.091Z,3.05
2022-12-04T18:21:00.281Z,2.93
2022-12-04T18:23:32.661Z,2.89
2022-12-04T18:26:05.530Z,2.93
2022-12-04T18:28:38.542Z,2.88
2022-12-04T18:31:11.570Z,2.91
2022-12-04T18:33:44.434Z,3.07
2022-12-04T18:36:19.450Z,3.19
2022-12-04T18:38:54.324Z,3.16
2022-12-04T18:41:27.384Z,3.10
2022-12-04T18:44:01.683Z,3.13
2022-12-04T18:46:34.051Z,3.21
2022-12-04T18:49:08.521Z,3.17
2022-12-04T18:51:48.904Z,3.21
2022-12-04T18:54:23.464Z,3.23
2022-12-04T18:56:55.799Z,3.25
2022-12-04T18:59:28.842Z,3.21
2022-12-04T19:02:01.290Z,3.18
2022-12-04T19:04:33.754Z,3.00
2022-12-04T19:07:06.063Z,3.02
2022-12-04T19:10:09.926Z,2.99
2022-12-04T19:12:30.727Z,2.91
2022-12-04T19:15:04.317Z,2.89
2022-12-04T19:17:36.663Z,2.93
2022-12-04T19:20:10.172Z,2.93
2022-12-04T19:22:42.503Z,2.84
2022-12-04T19:25:15.420Z,2.84
2022-12-04T19:27:47.737Z,2.90
2022-12-04T19:30:20.799Z,2.91
2022-12-04T19:32:53.241Z,2.98
2022-12-04T19:35:25.642Z,3.07
2022-12-04T19:37:58.005Z,3.11
2022-12-04T19:40:30.442Z,3.17
2022-12-04T19:43:03.302Z,3.25
2022-12-04T19:45:36.422Z,3.34
2022-12-04T19:48:08.782Z,3.47
2022-12-04T19:50:41.068Z,3.51
2022-12-04T19:53:13.384Z,3.38
2022-12-04T19:55:45.892Z,3.18
2022-12-04T19:58:18.303Z,3.30
2022-12-04T20:00:54.864Z,3.27
2022-12-04T20:03:27.199Z,3.31
2022-12-04T20:06:02.674Z,3.29
2022-12-04T20:08:35.285Z,3.18
2022-12-04T20:11:11.011Z,3.28
2022-12-04T20:13:44.092Z,3.39
2022-12-04T20:16:18.724Z,3.51
2022-12-04T20:18:51.568Z,3.53
2022-12-04T20:21:27.622Z,3.57
2022-12-04T20:24:01.532Z,3.59
2022-12-04T20:26:37.576Z,3.56
2022-12-04T20:29:12.581Z,3.66
2022-12-04T20:31:46.633Z,3.46
2022-12-04T20:34:19.536Z,3.46
2022-12-04T20:36:52.474Z,3.45
2022-12-04T20:39:24.964Z,3.51
2022-12-04T20:41:57.281Z,3.42
2022-12-04T20:44:29.643Z,3.30
2022-12-04T20:47:02.619Z,3.36
2022-12-04T20:49:34.996Z,3.42
2022-12-04T20:52:07.399Z,3.44
2022-12-04T20:54:41.748Z,3.47
2022-12-04T20:57:14.254Z,3.53
2022-12-04T20:59:46.553Z,3.54
2022-12-04T21:02:19.952Z,3.40
2022-12-04T21:04:52.313Z,3.41
2022-12-04T21:07:24.768Z,3.47
2022-12-04T21:09:58.110Z,3.54
2022-12-04T21:12:56.926Z,3.54
2022-12-04T21:16:01.992Z,3.56
2022-12-04T21:18:36.783Z,3.65
2022-12-04T21:21:09.125Z,3.68
2022-12-04T21:23:41.426Z,3.71
2022-12-04T21:26:14.216Z,3.70
2022-12-04T21:28:47.168Z,3.62
2022-12-04T21:31:19.613Z,3.55
2022-12-04T21:33:52.666Z,3.49
2022-12-04T21:36:26.110Z,3.30
2022-12-04T21:38:58.599Z,3.43
2022-12-04T21:41:49.562Z,3.40
2022-12-04T21:44:22.412Z,3.35
2022-12-04T21:46:54.938Z,3.30
2022-12-04T21:49:28.313Z,3.31
2022-12-04T21:52:00.669Z,3.32
2022-12-04T21:54:33.013Z,3.23
2022-12-04T21:57:05.355Z,3.06
2022-12-04T21:59:37.727Z,2.93
2022-12-04T22:02:10.415Z,2.89
2022-12-04T22:04:43.625Z,2.82
2022-12-04T22:07:16.147Z,2.79
2022-12-04T22:09:48.505Z,2.86
2022-12-04T22:12:48.056Z,2.92
2022-12-04T22:15:13.113Z,3.02
2022-12-04T22:17:45.475Z,3.15
2022-12-04T22:20:18.585Z,3.13
2022-12-04T22:22:50.902Z,3.26
2022-12-04T22:25:23.235Z,3.30
2022-12-04T22:27:55.730Z,3.40
2022-12-04T22:30:28.423Z,3.38
2022-12-04T22:33:00.764Z,3.32
2022-12-04T22:35:34.133Z,3.24
2022-12-04T22:38:06.495Z,3.29
2022-12-04T22:40:38.879Z,3.22
2022-12-04T22:43:11.206Z,3.25
2022-12-04T22:45:43.961Z,3.36
2022-12-04T22:48:16.256Z,3.34
2022-12-04T22:50:56.845Z,3.38
2022-12-04T22:53:30.230Z,3.38
2022-12-04T22:56:05.372Z,3.44
2022-12-04T22:58:37.746Z,3.44
2022-12-04T23:01:12.219Z,3.41
2022-12-04T23:03:44.793Z,3.41
2022-12-04T23:06:20.106Z,3.35
2022-12-04T23:08:54.782Z,3.36
2022-12-04T23:11:27.719Z,3.34
2022-12-04T23:14:02.461Z,3.28
2022-12-04T23:16:36.735Z,3.26
2022-12-04T23:19:12.234Z,3.34
2022-12-04T23:21:45.992Z,3.39
2022-12-04T23:24:18.678Z,3.39
2022-12-04T23:26:50.953Z,3.28
2022-12-04T23:29:52.281Z,3.31
2022-12-04T23:32:15.771Z,3.35
2022-12-04T23:34:48.186Z,3.34
2022-12-04T23:37:21.225Z,3.29
2022-12-04T23:39:53.500Z,3.30
2022-12-04T23:42:29.798Z,3.33
2022-12-04T23:45:02.116Z,3.34
2022-12-04T23:47:36.707Z,3.28
2022-12-04T23:50:09.440Z,3.30
2022-12-04T23:52:42.421Z,3.21
2022-12-04T23:55:14.849Z,3.19
2022-12-04T23:57:47.212Z,3.31
